Time,TemperatureF,DewpointF,PressureIn,WindDirection,WindDirectionDegrees,WindSpeedMPH,WindSpeedGustMPH,Humidity,HourlyPrecipIn,Conditions,Clouds,dailyrainin,SoftwareType,DateUTC
2013-07-08 00:02:00,73.2,71.0,29.98,SSE,158,0.0,3.0,93,0.00,,,0.00,weatherlink.com 1.10,2013-07-08 04:02:00,
2013-07-08 00:17:00,73.0,71.0,29.98,SSE,158,0.0,1.0,94,0.00,,,0.00,weatherlink.com 1.10,2013-07-08 04:17:00,
2013-07-08 00:33:00,72.5,70.0,29.97,SSE,158,0.0,1.0,93,0.00,,,0.00,weatherlink.com 1.10,2013-07-08 04:33:00,
2013-07-08 00:47:00,72.0,70.0,29.96,SSE,158,0.0,1.0,94,0.00,,,0.00,weatherlink.com 1.10,2013-07-08 04:47:00,
2013-07-08 01:02:00,71.6,70.0,29.96,SSE,158,0.0,0.0,94,0.00,,,0.00,weatherlink.com 1.10,2013-07-08 05:02:00,
2013-07-08 01:17:00,71.2,69.0,29.96,SSE,158,0.0,1.0,94,0.00,,,0.00,weatherlink.com 1.10,2013-07-08 05:17:00,
2013-07-08 01:32:00,71.1,70.0,29.97,SSE,158,0.0,2.0,95,0.00,,,0.00,weatherlink.com 1.10,2013-07-08 05:32:00,
2013-07-08 01:47:00,71.2,70.0,29.97,ESE,115,0.0,2.0,95,0.00,,,0.00,weatherlink.com 1.10,2013-07-08 05:47:00,
2013-07-08 02:02:00,71.3,70.0,29.98,WSW,257,0.0,2.0,95,0.00,,,0.00,weatherlink.com 1.10,2013-07-08 06:02:00,
2013-07-08 02:17:00,72.5,71.0,29.97,WSW,250,1.0,8.0,96,0.00,,,0.00,weatherlink.com 1.10,2013-07-08 06:17:00,
2013-07-08 02:32:00,72.9,71.0,29.97,SW,214,1.0,7.0,94,0.00,,,0.00,weatherlink.com 1.10,2013-07-08 06:32:00,
2013-07-08 02:47:00,73.0,71.0,29.97,WNW,290,0.0,4.0,93,0.00,,,0.00,weatherlink.com 1.10,2013-07-08 06:47:00,
2013-07-08 03:02:00,73.2,71.0,29.97,West,279,2.0,7.0,93,0.00,,,0.00,weatherlink.com 1.10,2013-07-08 07:02:00,
2013-07-08 03:17:00,73.4,71.0,29.97,ESE,119,3.0,9.0,92,0.00,,,0.00,weatherlink.com 1.10,2013-07-08 07:17:00,
2013-07-08 03:32:00,73.4,71.0,29.97,West,274,3.0,9.0,92,0.00,,,0.00,weatherlink.com 1.10,2013-07-08 07:32:00,
2013-07-08 03:47:00,73.6,71.0,29.97,WSW,252,3.0,9.0,91,0.00,,,0.00,weatherlink.com 1.10,2013-07-08 07:47:00,
2013-07-08 04:02:00,73.7,71.0,29.97,NW,308,4.0,8.0,91,0.00,,,0.00,weatherlink.com 1.10,2013-07-08 08:02:00,
2013-07-08 04:17:00,73.7,71.0,29.97,West,266,0.0,7.0,91,0.00,,,0.00,weatherlink.com 1.10,2013-07-08 08:17:00,
2013-07-08 04:32:00,73.6,71.0,29.97,WNW,292,0.0,3.0,92,0.00,,,0.00,weatherlink.com 1.10,2013-07-08 08:32:00,
2013-07-08 04:47:00,73.0,70.0,29.97,SE,129,0.0,2.0,91,0.00,,,0.00,weatherlink.com 1.10,2013-07-08 08:47:00,
2013-07-08 05:02:00,72.1,70.0,29.97,SE,129,0.0,1.0,92,0.00,,,0.00,weatherlink.com 1.10,2013-07-08 09:02:00,
2013-07-08 05:17:00,71.6,70.0,29.97,SE,129,0.0,1.0,93,0.00,,,0.00,weatherlink.com 1.10,2013-07-08 09:17:00,
2013-07-08 05:32:00,71.1,69.0,29.98,SE,129,0.0,1.0,93,0.00,,,0.00,weatherlink.com 1.10,2013-07-08 09:32:00,
2013-07-08 05:47:00,71.2,69.0,29.98,West,277,0.0,5.0,94,0.00,,,0.00,weatherlink.com 1.10,2013-07-08 09:47:00,
2013-07-08 06:02:00,72.3,70.0,29.98,SW,228,0.0,5.0,91,0.00,,,0.00,weatherlink.com 1.10,2013-07-08 10:02:00,
2013-07-08 06:17:00,72.8,70.0,29.98,SW,214,0.0,2.0,91,0.00,,,0.00,weatherlink.com 1.10,2013-07-08 10:17:00,
2013-07-08 06:32:00,72.7,70.0,29.98,SW,214,0.0,1.0,91,0.00,,,0.00,weatherlink.com 1.10,2013-07-08 10:32:00,
2013-07-08 06:47:00,73.9,70.0,29.98,WSW,257,0.0,5.0,88,0.00,,,0.00,weatherlink.com 1.10,2013-07-08 10:47:00,
2013-07-08 07:02:00,76.2,71.0,29.99,North,10,2.0,6.0,83,0.00,,,0.00,weatherlink.com 1.10,2013-07-08 11:02:00,
2013-07-08 07:17:00,77.2,71.0,29.98,SSW,199,2.0,8.0,80,0.00,,,0.00,weatherlink.com 1.10,2013-07-08 11:17:00,
2013-07-08 07:32:00,77.8,71.0,29.99,WSW,238,2.0,8.0,80,0.00,,,0.00,weatherlink.com 1.10,2013-07-08 11:32:00,
2013-07-08 07:47:00,77.5,70.0,29.99,WSW,255,9.0,13.0,78,0.00,,,0.00,weatherlink.com 1.10,2013-07-08 11:47:00,
2013-07-08 08:02:00,76.6,70.0,29.99,WNW,283,3.0,12.0,81,0.00,,,0.00,weatherlink.com 1.10,2013-07-08 12:02:00,
2013-07-08 08:17:00,77.7,70.0,29.99,WNW,282,8.0,12.0,78,0.00,,,0.00,weatherlink.com 1.10,2013-07-08 12:17:00,
2013-07-08 08:33:00,77.6,70.0,29.99,West,262,7.0,18.0,78,0.00,,,0.00,weatherlink.com 1.10,2013-07-08 12:33:00,
2013-07-08 08:48:00,77.5,71.0,29.99,WNW,303,12.0,16.0,79,0.00,,,0.00,weatherlink.com 1.10,2013-07-08 12:48:00,
2013-07-08 09:03:00,77.8,71.0,29.99,WSW,253,8.0,15.0,79,0.00,,,0.00,weatherlink.com 1.10,2013-07-08 13:03:00,
2013-07-08 09:18:00,77.7,71.0,29.99,West,267,5.0,18.0,79,0.00,,,0.00,weatherlink.com 1.10,2013-07-08 13:18:00,
2013-07-08 09:33:00,78.2,71.0,30.00,East,99,1.0,12.0,79,0.00,,,0.00,weatherlink.com 1.10,2013-07-08 13:33:00,
2013-07-08 09:48:00,77.7,70.0,30.00,West,268,6.0,17.0,78,0.00,,,0.00,weatherlink.com 1.10,2013-07-08 13:48:00,
2013-07-08 10:03:00,76.6,70.0,30.00,WSW,257,3.0,21.0,80,0.00,,,0.00,weatherlink.com 1.10,2013-07-08 14:03:00,
2013-07-08 10:18:00,76.3,70.0,30.00,WNW,288,4.0,17.0,82,0.00,,,0.00,weatherlink.com 1.10,2013-07-08 14:18:00,
2013-07-08 10:33:00,77.6,72.0,30.00,NW,311,4.0,14.0,82,0.00,,,0.00,weatherlink.com 1.10,2013-07-08 14:33:00,
2013-07-08 10:48:00,78.1,71.0,29.99,SSW,193,5.0,14.0,78,0.00,,,0.00,weatherlink.com 1.10,2013-07-08 14:48:00,
2013-07-08 11:03:00,78.3,71.0,30.00,WSW,248,3.0,12.0,79,0.00,,,0.00,weatherlink.com 1.10,2013-07-08 15:03:00,
2013-07-08 11:18:00,78.8,71.0,30.00,NNW,331,8.0,11.0,78,0.00,,,0.00,weatherlink.com 1.10,2013-07-08 15:18:00,
2013-07-08 11:33:00,78.0,71.0,30.00,West,260,6.0,16.0,79,0.00,,,0.00,weatherlink.com 1.10,2013-07-08 15:33:00,
2013-07-08 11:48:00,78.9,72.0,30.00,West,266,2.0,15.0,79,0.00,,,0.00,weatherlink.com 1.10,2013-07-08 15:48:00,
2013-07-08 12:03:00,78.9,72.0,30.01,WNW,300,10.0,16.0,78,0.00,,,0.00,weatherlink.com 1.10,2013-07-08 16:03:00,
2013-07-08 12:18:00,79.3,72.0,30.00,NW,311,6.0,16.0,79,0.00,,,0.00,weatherlink.com 1.10,2013-07-08 16:18:00,
2013-07-08 12:48:00,80.2,72.0,30.01,WSW,255,7.0,12.0,77,0.00,,,0.00,weatherlink.com 1.10,2013-07-08 16:48:00,
2013-07-08 13:03:00,80.0,72.0,30.01,SSW,211,6.0,15.0,77,0.00,,,0.00,weatherlink.com 1.10,2013-07-08 17:03:00,
2013-07-08 13:33:00,81.6,74.0,30.00,NW,318,1.0,14.0,77,0.00,,,0.00,weatherlink.com 1.10,2013-07-08 17:33:00,
2013-07-08 13:48:00,81.1,73.0,30.00,WNW,288,5.0,14.0,75,0.00,,,0.00,weatherlink.com 1.10,2013-07-08 17:48:00,
2013-07-08 14:03:00,81.5,73.0,30.00,West,270,11.0,14.0,74,0.00,,,0.00,weatherlink.com 1.10,2013-07-08 18:03:00,
2013-07-08 14:19:00,81.4,73.0,30.00,West,259,4.0,14.0,75,0.00,,,0.00,weatherlink.com 1.10,2013-07-08 18:19:00,
2013-07-08 14:33:00,81.8,73.0,30.01,WNW,288,6.0,14.0,74,0.00,,,0.00,weatherlink.com 1.10,2013-07-08 18:33:00,
2013-07-08 15:03:00,82.5,73.0,30.00,West,271,3.0,13.0,74,0.00,,,0.00,weatherlink.com 1.10,2013-07-08 19:03:00,
2013-07-08 15:18:00,83.1,73.0,30.00,WSW,245,2.0,11.0,72,0.00,,,0.00,weatherlink.com 1.10,2013-07-08 19:18:00,
2013-07-08 15:33:00,82.4,73.0,30.00,SW,233,1.0,10.0,74,0.00,,,0.00,weatherlink.com 1.10,2013-07-08 19:33:00,
2013-07-08 15:48:00,82.8,73.0,30.00,SSW,196,1.0,11.0,72,0.00,,,0.00,weatherlink.com 1.10,2013-07-08 19:48:00,
2013-07-08 16:18:00,81.8,72.0,30.00,West,278,7.0,15.0,73,0.00,,,0.00,weatherlink.com 1.10,2013-07-08 20:18:00,
2013-07-08 16:33:00,81.4,73.0,30.00,WSW,253,1.0,13.0,75,0.00,,,0.00,weatherlink.com 1.10,2013-07-08 20:33:00,
2013-07-08 17:03:00,82.1,73.0,29.99,West,271,3.0,11.0,74,0.00,,,0.00,weatherlink.com 1.10,2013-07-08 21:03:00,
2013-07-08 17:48:00,81.3,71.0,30.00,NW,307,8.0,12.0,72,0.00,,,0.00,weatherlink.com 1.10,2013-07-08 21:48:00,
2013-07-08 18:33:00,79.6,71.0,30.00,WSW,247,0.0,9.0,74,0.00,,,0.00,weatherlink.com 1.10,2013-07-08 22:33:00,
2013-07-08 18:48:00,79.4,70.0,30.00,WSW,239,4.0,10.0,73,0.00,,,0.00,weatherlink.com 1.10,2013-07-08 22:48:00,
2013-07-08 19:03:00,79.0,70.0,30.00,North,354,2.0,9.0,74,0.00,,,0.00,weatherlink.com 1.10,2013-07-08 23:03:00,
2013-07-08 20:18:00,75.1,70.0,30.01,East,93,4.0,8.0,83,0.00,,,0.00,weatherlink.com 1.10,2013-07-09 00:18:00,
2013-07-08 20:33:00,74.7,70.0,30.02,West,263,9.0,10.0,85,0.00,,,0.00,weatherlink.com 1.10,2013-07-09 00:33:00,
2013-07-08 21:03:00,74.3,70.0,30.03,West,260,7.0,10.0,86,0.00,,,0.00,weatherlink.com 1.10,2013-07-09 01:03:00,
2013-07-08 21:19:00,74.4,70.0,30.04,West,261,3.0,11.0,86,0.00,,,0.00,weatherlink.com 1.10,2013-07-09 01:19:00,
2013-07-08 22:19:00,74.1,70.0,30.06,SSE,165,3.0,12.0,87,0.00,,,0.00,weatherlink.com 1.10,2013-07-09 02:19:00,
2013-07-08 22:34:00,73.7,70.0,30.06,West,271,3.0,10.0,89,0.00,,,0.00,weatherlink.com 1.10,2013-07-09 02:34:00,
2013-07-08 22:49:00,73.5,71.0,30.06,West,264,2.0,14.0,90,0.00,,,0.00,weatherlink.com 1.10,2013-07-09 02:49:00,
2013-07-08 23:04:00,73.5,71.0,30.06,WSW,249,5.0,10.0,90,0.00,,,0.00,weatherlink.com 1.10,2013-07-09 03:04:00,
2013-07-08 23:34:00,72.2,70.0,30.06,West,279,3.0,8.0,91,0.00,,,0.00,weatherlink.com 1.10,2013-07-09 03:34:00,
2013-07-08 23:49:00,71.9,70.0,30.07,WNW,303,3.0,7.0,92,0.00,,,0.00,weatherlink.com 1.10,2013-07-09 03:49:00,